sensor_id;sensor_type;location;lat;lon;timestamp;temperature;humidity
8709;DHT22;4391;48.678;9.280;2023-08-07T00:00:04;11.30;99.80
8709;DHT22;4391;48.678;9.280;2023-08-07T00:02:34;11.30;99.90
8709;DHT22;4391;48.678;9.280;2023-08-07T00:05:01;11.30;97.60
8709;DHT22;4391;48.678;9.280;2023-08-07T00:07:29;11.30;87.00
8709;DHT22;4391;48.678;9.280;2023-08-07T00:09:56;11.30;90.70
8709;DHT22;4391;48.678;9.280;2023-08-07T00:12:23;11.30;81.80
8709;DHT22;4391;48.678;9.280;2023-08-07T00:14:50;11.30;83.50
8709;DHT22;4391;48.678;9.280;2023-08-07T00:17:17;11.30;74.60
8709;DHT22;4391;48.678;9.280;2023-08-07T00:19:44;11.30;50.10
8709;DHT22;4391;48.678;9.280;2023-08-07T00:22:11;11.30;56.40
8709;DHT22;4391;48.678;9.280;2023-08-07T00:24:39;11.30;52.90
8709;DHT22;4391;48.678;9.280;2023-08-07T00:27:06;11.20;45.80
8709;DHT22;4391;48.678;9.280;2023-08-07T00:29:35;11.30;43.90
8709;DHT22;4391;48.678;9.280;2023-08-07T00:32:02;11.30;42.60
8709;DHT22;4391;48.678;9.280;2023-08-07T00:34:29;11.30;47.00
8709;DHT22;4391;48.678;9.280;2023-08-07T00:36:56;11.20;41.90
8709;DHT22;4391;48.678;9.280;2023-08-07T00:39:23;11.20;44.20
8709;DHT22;4391;48.678;9.280;2023-08-07T00:41:51;11.20;45.60
8709;DHT22;4391;48.678;9.280;2023-08-07T00:44:18;11.10;56.40
8709;DHT22;4391;48.678;9.280;2023-08-07T00:46:48;11.10;61.90
8709;DHT22;4391;48.678;9.280;2023-08-07T00:49:15;11.00;75.50
8709;DHT22;4391;48.678;9.280;2023-08-07T00:51:42;11.00;76.80
8709;DHT22;4391;48.678;9.280;2023-08-07T00:54:10;11.00;86.80
8709;DHT22;4391;48.678;9.280;2023-08-07T00:56:39;11.00;84.70
8709;DHT22;4391;48.678;9.280;2023-08-07T00:59:07;11.00;76.50
8709;DHT22;4391;48.678;9.280;2023-08-07T01:01:35;10.90;77.60
8709;DHT22;4391;48.678;9.280;2023-08-07T01:04:02;11.00;74.00
8709;DHT22;4391;48.678;9.280;2023-08-07T01:06:29;10.90;77.30
8709;DHT22;4391;48.678;9.280;2023-08-07T01:08:57;10.90;90.30
8709;DHT22;4391;48.678;9.280;2023-08-07T01:11:30;10.90;88.90
8709;DHT22;4391;48.678;9.280;2023-08-07T01:14:04;10.90;79.70
8709;DHT22;4391;48.678;9.280;2023-08-07T01:16:37;10.90;79.00
8709;DHT22;4391;48.678;9.280;2023-08-07T01:19:08;10.90;76.10
8709;DHT22;4391;48.678;9.280;2023-08-07T01:21:35;10.90;72.00
8709;DHT22;4391;48.678;9.280;2023-08-07T01:24:05;10.90;78.70
8709;DHT22;4391;48.678;9.280;2023-08-07T01:26:33;11.00;75.00
8709;DHT22;4391;48.678;9.280;2023-08-07T01:29:06;11.00;71.00
8709;DHT22;4391;48.678;9.280;2023-08-07T01:31:39;11.00;67.70
8709;DHT22;4391;48.678;9.280;2023-08-07T01:34:10;11.00;56.60
8709;DHT22;4391;48.678;9.280;2023-08-07T01:36:39;11.00;56.00
8709;DHT22;4391;48.678;9.280;2023-08-07T01:39:08;11.10;44.70
8709;DHT22;4391;48.678;9.280;2023-08-07T01:41:36;11.10;45.40
8709;DHT22;4391;48.678;9.280;2023-08-07T01:44:03;11.00;55.80
8709;DHT22;4391;48.678;9.280;2023-08-07T01:46:30;11.00;57.20
8709;DHT22;4391;48.678;9.280;2023-08-07T01:48:57;11.00;59.70
8709;DHT22;4391;48.678;9.280;2023-08-07T01:51:24;10.90;63.80
8709;DHT22;4391;48.678;9.280;2023-08-07T01:53:51;10.90;59.70
8709;DHT22;4391;48.678;9.280;2023-08-07T01:56:19;10.90;60.90
8709;DHT22;4391;48.678;9.280;2023-08-07T01:58:46;10.90;55.10
8709;DHT22;4391;48.678;9.280;2023-08-07T02:01:13;10.90;51.90
8709;DHT22;4391;48.678;9.280;2023-08-07T02:03:39;10.90;51.40
8709;DHT22;4391;48.678;9.280;2023-08-07T02:06:06;10.90;57.10
8709;DHT22;4391;48.678;9.280;2023-08-07T02:08:33;10.80;57.00
8709;DHT22;4391;48.678;9.280;2023-08-07T02:11:00;10.90;50.00
8709;DHT22;4391;48.678;9.280;2023-08-07T02:13:29;10.90;44.60
8709;DHT22;4391;48.678;9.280;2023-08-07T02:15:56;10.90;38.20
8709;DHT22;4391;48.678;9.280;2023-08-07T02:18:23;10.90;24.90
8709;DHT22;4391;48.678;9.280;2023-08-07T02:20:50;11.00;22.40
8709;DHT22;4391;48.678;9.280;2023-08-07T02:23:16;11.00;25.30
8709;DHT22;4391;48.678;9.280;2023-08-07T02:25:43;11.10;11.60
8709;DHT22;4391;48.678;9.280;2023-08-07T02:28:10;11.10;6.60
8709;DHT22;4391;48.678;9.280;2023-08-07T02:30:39;11.20;1.00
8709;DHT22;4391;48.678;9.280;2023-08-07T02:33:05;11.20;1.00
8709;DHT22;4391;48.678;9.280;2023-08-07T02:35:32;11.30;1.00
8709;DHT22;4391;48.678;9.280;2023-08-07T02:37:59;11.20;1.00
8709;DHT22;4391;48.678;9.280;2023-08-07T02:40:26;11.30;1.00
8709;DHT22;4391;48.678;9.280;2023-08-07T02:42:53;11.30;1.00
8709;DHT22;4391;48.678;9.280;2023-08-07T02:45:19;11.30;1.00
8709;DHT22;4391;48.678;9.280;2023-08-07T02:47:47;11.40;1.00
8709;DHT22;4391;48.678;9.280;2023-08-07T02:50:14;11.40;1.00
8709;DHT22;4391;48.678;9.280;2023-08-07T02:52:44;11.40;1.00
8709;DHT22;4391;48.678;9.280;2023-08-07T02:55:11;11.40;1.00
8709;DHT22;4391;48.678;9.280;2023-08-07T02:57:38;11.50;1.00
8709;DHT22;4391;48.678;9.280;2023-08-07T03:00:06;11.50;1.00
8709;DHT22;4391;48.678;9.280;2023-08-07T03:02:33;11.50;1.00
8709;DHT22;4391;48.678;9.280;2023-08-07T03:05:01;11.50;1.00
8709;DHT22;4391;48.678;9.280;2023-08-07T03:07:28;11.50;1.00
8709;DHT22;4391;48.678;9.280;2023-08-07T03:09:55;11.50;1.00
8709;DHT22;4391;48.678;9.280;2023-08-07T03:12:22;11.50;1.00
8709;DHT22;4391;48.678;9.280;2023-08-07T03:14:48;11.50;1.00
8709;DHT22;4391;48.678;9.280;2023-08-07T03:17:15;11.50;1.00
8709;DHT22;4391;48.678;9.280;2023-08-07T03:19:43;11.30;1.00
8709;DHT22;4391;48.678;9.280;2023-08-07T03:22:11;11.40;1.00
8709;DHT22;4391;48.678;9.280;2023-08-07T03:24:38;11.30;1.00
8709;DHT22;4391;48.678;9.280;2023-08-07T03:27:05;11.30;1.00
8709;DHT22;4391;48.678;9.280;2023-08-07T03:29:31;11.20;1.00
8709;DHT22;4391;48.678;9.280;2023-08-07T03:31:58;11.20;1.00
8709;DHT22;4391;48.678;9.280;2023-08-07T03:34:25;11.10;1.00
8709;DHT22;4391;48.678;9.280;2023-08-07T03:36:52;11.10;1.00
8709;DHT22;4391;48.678;9.280;2023-08-07T03:39:20;11.10;99.90
8709;DHT22;4391;48.678;9.280;2023-08-07T03:41:47;11.10;1.00
8709;DHT22;4391;48.678;9.280;2023-08-07T03:44:13;11.10;99.90
8709;DHT22;4391;48.678;9.280;2023-08-07T03:46:40;11.10;99.90
8709;DHT22;4391;48.678;9.280;2023-08-07T03:49:07;11.10;99.90
8709;DHT22;4391;48.678;9.280;2023-08-07T03:51:34;11.10;99.90
8709;DHT22;4391;48.678;9.280;2023-08-07T03:54:00;11.10;99.90
8709;DHT22;4391;48.678;9.280;2023-08-07T03:56:29;11.10;99.90
8709;DHT22;4391;48.678;9.280;2023-08-07T03:58:58;11.10;99.90
8709;DHT22;4391;48.678;9.280;2023-08-07T04:01:24;11.10;1.00
8709;DHT22;4391;48.678;9.280;2023-08-07T04:03:51;11.00;1.00
8709;DHT22;4391;48.678;9.280;2023-08-07T04:06:18;11.00;1.00
8709;DHT22;4391;48.678;9.280;2023-08-07T04:08:46;11.00;1.00
8709;DHT22;4391;48.678;9.280;2023-08-07T04:11:13;11.00;1.00
8709;DHT22;4391;48.678;9.280;2023-08-07T04:13:41;11.00;1.00
8709;DHT22;4391;48.678;9.280;2023-08-07T04:16:08;10.90;1.00
8709;DHT22;4391;48.678;9.280;2023-08-07T04:18:35;10.90;1.00
8709;DHT22;4391;48.678;9.280;2023-08-07T04:21:02;10.90;1.00
8709;DHT22;4391;48.678;9.280;2023-08-07T04:23:29;10.90;1.00
8709;DHT22;4391;48.678;9.280;2023-08-07T04:25:57;10.90;1.00
8709;DHT22;4391;48.678;9.280;2023-08-07T04:28:23;10.80;1.00
8709;DHT22;4391;48.678;9.280;2023-08-07T04:30:52;10.80;1.00
8709;DHT22;4391;48.678;9.280;2023-08-07T04:33:19;10.80;1.00
8709;DHT22;4391;48.678;9.280;2023-08-07T04:35:46;10.80;1.00
8709;DHT22;4391;48.678;9.280;2023-08-07T04:38:13;10.70;1.00
8709;DHT22;4391;48.678;9.280;2023-08-07T04:40:43;10.70;1.00
8709;DHT22;4391;48.678;9.280;2023-08-07T04:43:11;10.60;1.00
8709;DHT22;4391;48.678;9.280;2023-08-07T04:45:38;10.60;1.00
8709;DHT22;4391;48.678;9.280;2023-08-07T04:48:06;10.60;1.00
8709;DHT22;4391;48.678;9.280;2023-08-07T04:50:33;10.60;1.00
8709;DHT22;4391;48.678;9.280;2023-08-07T04:53:00;10.60;1.00
8709;DHT22;4391;48.678;9.280;2023-08-07T04:55:27;10.70;1.00
8709;DHT22;4391;48.678;9.280;2023-08-07T04:57:54;10.70;1.00
8709;DHT22;4391;48.678;9.280;2023-08-07T05:00:22;10.70;1.00
8709;DHT22;4391;48.678;9.280;2023-08-07T05:02:48;10.80;1.00
8709;DHT22;4391;48.678;9.280;2023-08-07T05:05:17;10.80;1.00
8709;DHT22;4391;48.678;9.280;2023-08-07T05:07:46;10.80;1.00
8709;DHT22;4391;48.678;9.280;2023-08-07T05:10:13;10.90;1.00
8709;DHT22;4391;48.678;9.280;2023-08-07T05:12:40;10.90;1.00
8709;DHT22;4391;48.678;9.280;2023-08-07T05:15:07;11.00;1.00
8709;DHT22;4391;48.678;9.280;2023-08-07T05:17:34;11.10;1.00
8709;DHT22;4391;48.678;9.280;2023-08-07T05:20:01;11.10;1.00
8709;DHT22;4391;48.678;9.280;2023-08-07T05:22:32;11.20;1.00
8709;DHT22;4391;48.678;9.280;2023-08-07T05:24:59;11.20;1.00
8709;DHT22;4391;48.678;9.280;2023-08-07T05:27:26;11.20;1.00
8709;DHT22;4391;48.678;9.280;2023-08-07T05:29:53;11.30;99.90
8709;DHT22;4391;48.678;9.280;2023-08-07T05:32:19;11.40;99.90
8709;DHT22;4391;48.678;9.280;2023-08-07T05:34:46;11.50;99.90
8709;DHT22;4391;48.678;9.280;2023-08-07T05:37:13;11.60;99.90
8709;DHT22;4391;48.678;9.280;2023-08-07T05:39:41;11.60;99.90
8709;DHT22;4391;48.678;9.280;2023-08-07T05:42:08;11.60;99.90
8709;DHT22;4391;48.678;9.280;2023-08-07T05:44:36;11.70;99.90
8709;DHT22;4391;48.678;9.280;2023-08-07T05:47:03;11.80;17.00
8709;DHT22;4391;48.678;9.280;2023-08-07T05:49:30;11.80;51.50
8709;DHT22;4391;48.678;9.280;2023-08-07T05:51:57;11.90;1.00
8709;DHT22;4391;48.678;9.280;2023-08-07T05:54:23;11.90;1.00
8709;DHT22;4391;48.678;9.280;2023-08-07T05:56:52;12.00;1.00
8709;DHT22;4391;48.678;9.280;2023-08-07T05:59:19;12.00;1.00
8709;DHT22;4391;48.678;9.280;2023-08-07T06:01:46;12.10;1.00
8709;DHT22;4391;48.678;9.280;2023-08-07T06:04:12;12.20;1.00
8709;DHT22;4391;48.678;9.280;2023-08-07T06:06:39;12.20;99.90
8709;DHT22;4391;48.678;9.280;2023-08-07T06:09:08;12.30;99.90
8709;DHT22;4391;48.678;9.280;2023-08-07T06:11:35;12.30;1.00
8709;DHT22;4391;48.678;9.280;2023-08-07T06:14:03;12.30;1.00
8709;DHT22;4391;48.678;9.280;2023-08-07T06:16:30;12.40;99.90
8709;DHT22;4391;48.678;9.280;2023-08-07T06:18:57;12.40;1.00
8709;DHT22;4391;48.678;9.280;2023-08-07T06:21:24;12.50;99.90
8709;DHT22;4391;48.678;9.280;2023-08-07T06:23:51;12.50;1.00
8709;DHT22;4391;48.678;9.280;2023-08-07T06:26:17;12.50;59.00
8709;DHT22;4391;48.678;9.280;2023-08-07T06:28:44;12.50;99.90
8709;DHT22;4391;48.678;9.280;2023-08-07T06:31:13;12.60;1.00
8709;DHT22;4391;48.678;9.280;2023-08-07T06:33:39;12.60;1.00
8709;DHT22;4391;48.678;9.280;2023-08-07T06:36:07;12.50;99.90
8709;DHT22;4391;48.678;9.280;2023-08-07T06:38:34;12.60;99.90
8709;DHT22;4391;48.678;9.280;2023-08-07T06:41:01;12.70;45.40
8709;DHT22;4391;48.678;9.280;2023-08-07T06:43:28;12.60;99.90
8709;DHT22;4391;48.678;9.280;2023-08-07T06:45:56;12.70;1.00
8709;DHT22;4391;48.678;9.280;2023-08-07T06:48:24;12.70;1.00
8709;DHT22;4391;48.678;9.280;2023-08-07T06:50:51;12.70;1.00
8709;DHT22;4391;48.678;9.280;2023-08-07T06:53:18;12.70;99.90
8709;DHT22;4391;48.678;9.280;2023-08-07T06:55:45;12.70;1.00
8709;DHT22;4391;48.678;9.280;2023-08-07T06:58:12;12.70;99.90
8709;DHT22;4391;48.678;9.280;2023-08-07T07:00:39;12.70;1.00
8709;DHT22;4391;48.678;9.280;2023-08-07T07:03:06;12.70;1.00
8709;DHT22;4391;48.678;9.280;2023-08-07T07:05:37;12.70;99.90
8709;DHT22;4391;48.678;9.280;2023-08-07T07:08:04;12.80;99.90
8709;DHT22;4391;48.678;9.280;2023-08-07T07:10:31;13.00;99.90
8709;DHT22;4391;48.678;9.280;2023-08-07T07:12:58;13.10;22.20
8709;DHT22;4391;48.678;9.280;2023-08-07T07:15:25;13.20;1.00
8709;DHT22;4391;48.678;9.280;2023-08-07T07:17:52;13.40;99.90
8709;DHT22;4391;48.678;9.280;2023-08-07T07:20:19;13.60;99.90
8709;DHT22;4391;48.678;9.280;2023-08-07T07:22:47;13.80;99.90
8709;DHT22;4391;48.678;9.280;2023-08-07T07:25:14;13.90;1.00
8709;DHT22;4391;48.678;9.280;2023-08-07T07:27:41;14.10;99.90
8709;DHT22;4391;48.678;9.280;2023-08-07T07:30:09;14.30;1.00
8709;DHT22;4391;48.678;9.280;2023-08-07T07:32:36;14.30;1.00
8709;DHT22;4391;48.678;9.280;2023-08-07T07:35:03;14.40;1.00
8709;DHT22;4391;48.678;9.280;2023-08-07T07:37:30;14.30;99.90
8709;DHT22;4391;48.678;9.280;2023-08-07T07:39:58;14.40;1.00
8709;DHT22;4391;48.678;9.280;2023-08-07T07:42:25;14.40;1.00
8709;DHT22;4391;48.678;9.280;2023-08-07T07:44:52;14.40;99.90
8709;DHT22;4391;48.678;9.280;2023-08-07T07:47:18;14.40;1.00
8709;DHT22;4391;48.678;9.280;2023-08-07T07:49:47;14.40;1.00
8709;DHT22;4391;48.678;9.280;2023-08-07T07:52:14;14.40;99.90
8709;DHT22;4391;48.678;9.280;2023-08-07T07:54:40;14.30;96.40
8709;DHT22;4391;48.678;9.280;2023-08-07T07:57:09;14.40;52.90
8709;DHT22;4391;48.678;9.280;2023-08-07T07:59:36;14.50;1.00
8709;DHT22;4391;48.678;9.280;2023-08-07T08:02:03;14.70;1.00
8709;DHT22;4391;48.678;9.280;2023-08-07T08:04:30;14.90;1.00
8709;DHT22;4391;48.678;9.280;2023-08-07T08:06:57;15.10;1.00
8709;DHT22;4391;48.678;9.280;2023-08-07T08:09:25;15.30;1.00
8709;DHT22;4391;48.678;9.280;2023-08-07T08:11:52;15.40;99.90
8709;DHT22;4391;48.678;9.280;2023-08-07T08:14:20;15.50;99.90
8709;DHT22;4391;48.678;9.280;2023-08-07T08:16:46;15.60;99.90
8709;DHT22;4391;48.678;9.280;2023-08-07T08:19:13;15.60;99.90
8709;DHT22;4391;48.678;9.280;2023-08-07T08:21:41;15.70;99.90
8709;DHT22;4391;48.678;9.280;2023-08-07T08:24:09;15.80;99.90
8709;DHT22;4391;48.678;9.280;2023-08-07T08:26:35;15.70;99.90
8709;DHT22;4391;48.678;9.280;2023-08-07T08:29:02;15.60;99.90
8709;DHT22;4391;48.678;9.280;2023-08-07T08:31:31;15.60;99.90
8709;DHT22;4391;48.678;9.280;2023-08-07T08:33:58;15.60;99.90
8709;DHT22;4391;48.678;9.280;2023-08-07T08:36:25;15.60;99.90
8709;DHT22;4391;48.678;9.280;2023-08-07T08:38:52;15.80;99.90
8709;DHT22;4391;48.678;9.280;2023-08-07T08:41:19;15.80;99.90
8709;DHT22;4391;48.678;9.280;2023-08-07T08:43:46;16.10;99.90
8709;DHT22;4391;48.678;9.280;2023-08-07T08:46:15;16.40;99.90
8709;DHT22;4391;48.678;9.280;2023-08-07T08:48:47;16.40;99.90
8709;DHT22;4391;48.678;9.280;2023-08-07T08:51:16;16.60;99.90
8709;DHT22;4391;48.678;9.280;2023-08-07T08:53:44;16.70;99.90
8709;DHT22;4391;48.678;9.280;2023-08-07T08:56:11;16.80;99.90
8709;DHT22;4391;48.678;9.280;2023-08-07T08:58:39;17.10;99.90
8709;DHT22;4391;48.678;9.280;2023-08-07T09:01:06;17.10;99.90
8709;DHT22;4391;48.678;9.280;2023-08-07T09:03:34;17.50;99.90
8709;DHT22;4391;48.678;9.280;2023-08-07T09:06:02;17.70;99.90
8709;DHT22;4391;48.678;9.280;2023-08-07T09:08:32;18.20;99.90
8709;DHT22;4391;48.678;9.280;2023-08-07T09:11:01;18.60;99.90
8709;DHT22;4391;48.678;9.280;2023-08-07T09:13:29;18.50;99.90
8709;DHT22;4391;48.678;9.280;2023-08-07T09:15:59;18.20;99.90
8709;DHT22;4391;48.678;9.280;2023-08-07T09:18:26;17.80;99.90
8709;DHT22;4391;48.678;9.280;2023-08-07T09:20:54;17.80;99.90
8709;DHT22;4391;48.678;9.280;2023-08-07T09:23:24;18.20;99.90
8709;DHT22;4391;48.678;9.280;2023-08-07T09:25:59;18.60;99.90
8709;DHT22;4391;48.678;9.280;2023-08-07T09:28:27;18.40;99.90
8709;DHT22;4391;48.678;9.280;2023-08-07T09:30:54;18.60;99.90
8709;DHT22;4391;48.678;9.280;2023-08-07T09:33:24;18.60;99.90
8709;DHT22;4391;48.678;9.280;2023-08-07T09:35:52;18.50;99.90
8709;DHT22;4391;48.678;9.280;2023-08-07T09:38:23;18.50;99.90
8709;DHT22;4391;48.678;9.280;2023-08-07T09:40:50;18.70;99.90
8709;DHT22;4391;48.678;9.280;2023-08-07T09:43:21;18.90;99.90
8709;DHT22;4391;48.678;9.280;2023-08-07T09:45:48;19.10;99.90
8709;DHT22;4391;48.678;9.280;2023-08-07T09:48:24;19.10;99.90
8709;DHT22;4391;48.678;9.280;2023-08-07T09:50:53;19.00;99.90
8709;DHT22;4391;48.678;9.280;2023-08-07T09:53:26;18.80;99.90
8709;DHT22;4391;48.678;9.280;2023-08-07T09:55:53;19.00;99.90
8709;DHT22;4391;48.678;9.280;2023-08-07T09:58:20;19.00;99.90
8709;DHT22;4391;48.678;9.280;2023-08-07T10:00:47;18.60;99.90
8709;DHT22;4391;48.678;9.280;2023-08-07T10:03:14;18.70;99.90
8709;DHT22;4391;48.678;9.280;2023-08-07T10:05:42;18.60;99.90
8709;DHT22;4391;48.678;9.280;2023-08-07T10:08:10;18.70;99.90
8709;DHT22;4391;48.678;9.280;2023-08-07T10:10:39;18.70;99.90
8709;DHT22;4391;48.678;9.280;2023-08-07T10:13:06;18.30;99.90
8709;DHT22;4391;48.678;9.280;2023-08-07T10:15:33;18.30;99.90
8709;DHT22;4391;48.678;9.280;2023-08-07T10:18:01;18.40;99.90
8709;DHT22;4391;48.678;9.280;2023-08-07T10:20:29;18.00;99.90
8709;DHT22;4391;48.678;9.280;2023-08-07T10:23:00;18.80;99.90
8709;DHT22;4391;48.678;9.280;2023-08-07T10:25:31;19.60;99.90
8709;DHT22;4391;48.678;9.280;2023-08-07T10:28:00;20.10;99.90
8709;DHT22;4391;48.678;9.280;2023-08-07T10:30:29;19.50;99.90
8709;DHT22;4391;48.678;9.280;2023-08-07T10:32:58;19.80;99.90
8709;DHT22;4391;48.678;9.280;2023-08-07T10:35:29;19.80;99.90
8709;DHT22;4391;48.678;9.280;2023-08-07T10:38:05;19.50;99.90
8709;DHT22;4391;48.678;9.280;2023-08-07T10:40:32;19.40;99.90
8709;DHT22;4391;48.678;9.280;2023-08-07T10:43:12;19.20;99.90
8709;DHT22;4391;48.678;9.280;2023-08-07T10:45:43;18.80;99.90
8709;DHT22;4391;48.678;9.280;2023-08-07T10:48:12;19.30;99.90
8709;DHT22;4391;48.678;9.280;2023-08-07T10:50:56;19.90;99.90
8709;DHT22;4391;48.678;9.280;2023-08-07T10:53:30;20.00;99.90
8709;DHT22;4391;48.678;9.280;2023-08-07T10:55:58;19.80;99.90
8709;DHT22;4391;48.678;9.280;2023-08-07T10:58:29;19.60;99.90
8709;DHT22;4391;48.678;9.280;2023-08-07T11:01:20;20.00;99.90
8709;DHT22;4391;48.678;9.280;2023-08-07T11:03:52;20.20;99.90
8709;DHT22;4391;48.678;9.280;2023-08-07T11:06:22;19.50;99.90
8709;DHT22;4391;48.678;9.280;2023-08-07T11:08:50;19.40;99.90
8709;DHT22;4391;48.678;9.280;2023-08-07T11:11:17;19.20;99.90
8709;DHT22;4391;48.678;9.280;2023-08-07T11:13:46;18.70;99.90
8709;DHT22;4391;48.678;9.280;2023-08-07T11:16:13;18.40;99.90
8709;DHT22;4391;48.678;9.280;2023-08-07T11:18:40;18.40;99.90
8709;DHT22;4391;48.678;9.280;2023-08-07T11:21:08;17.90;99.90
8709;DHT22;4391;48.678;9.280;2023-08-07T11:23:36;17.90;99.90
8709;DHT22;4391;48.678;9.280;2023-08-07T11:26:03;18.60;99.90
8709;DHT22;4391;48.678;9.280;2023-08-07T11:28:29;19.30;99.90
8709;DHT22;4391;48.678;9.280;2023-08-07T11:30:58;19.60;99.90
8709;DHT22;4391;48.678;9.280;2023-08-07T11:33:26;19.70;99.90
8709;DHT22;4391;48.678;9.280;2023-08-07T11:35:54;19.50;99.90
8709;DHT22;4391;48.678;9.280;2023-08-07T11:38:31;19.30;99.90
8709;DHT22;4391;48.678;9.280;2023-08-07T11:40:59;18.90;99.90
8709;DHT22;4391;48.678;9.280;2023-08-07T11:43:28;18.40;99.90
8709;DHT22;4391;48.678;9.280;2023-08-07T11:45:56;18.10;99.90
8709;DHT22;4391;48.678;9.280;2023-08-07T11:48:26;17.90;99.90
8709;DHT22;4391;48.678;9.280;2023-08-07T11:50:53;17.40;99.90
8709;DHT22;4391;48.678;9.280;2023-08-07T11:53:20;17.40;99.90
8709;DHT22;4391;48.678;9.280;2023-08-07T11:55:52;17.20;99.90
8709;DHT22;4391;48.678;9.280;2023-08-07T11:58:20;17.10;99.90
8709;DHT22;4391;48.678;9.280;2023-08-07T12:00:47;16.90;99.90
8709;DHT22;4391;48.678;9.280;2023-08-07T12:03:32;16.90;99.90
8709;DHT22;4391;48.678;9.280;2023-08-07T12:06:03;16.80;99.90
8709;DHT22;4391;48.678;9.280;2023-08-07T12:08:34;16.60;99.90
8709;DHT22;4391;48.678;9.280;2023-08-07T12:11:02;16.50;99.90
8709;DHT22;4391;48.678;9.280;2023-08-07T12:13:30;16.40;99.90
8709;DHT22;4391;48.678;9.280;2023-08-07T12:16:00;16.30;99.90
8709;DHT22;4391;48.678;9.280;2023-08-07T12:18:30;16.20;99.90
8709;DHT22;4391;48.678;9.280;2023-08-07T12:20:58;16.10;99.90
8709;DHT22;4391;48.678;9.280;2023-08-07T12:23:25;16.00;99.90
8709;DHT22;4391;48.678;9.280;2023-08-07T12:25:52;15.80;99.90
8709;DHT22;4391;48.678;9.280;2023-08-07T12:28:19;15.70;99.90
8709;DHT22;4391;48.678;9.280;2023-08-07T12:30:47;15.80;99.90
8709;DHT22;4391;48.678;9.280;2023-08-07T12:33:14;15.90;99.90
8709;DHT22;4391;48.678;9.280;2023-08-07T12:35:42;15.90;99.90
8709;DHT22;4391;48.678;9.280;2023-08-07T12:38:09;15.80;99.90
8709;DHT22;4391;48.678;9.280;2023-08-07T12:40:37;15.80;99.90
8709;DHT22;4391;48.678;9.280;2023-08-07T12:43:04;15.80;99.90
8709;DHT22;4391;48.678;9.280;2023-08-07T12:45:31;15.50;1.00
8709;DHT22;4391;48.678;9.280;2023-08-07T12:47:58;15.30;1.00
8709;DHT22;4391;48.678;9.280;2023-08-07T12:50:25;15.20;8.20
8709;DHT22;4391;48.678;9.280;2023-08-07T12:52:53;15.30;1.00
8709;DHT22;4391;48.678;9.280;2023-08-07T12:55:20;15.40;1.00
8709;DHT22;4391;48.678;9.280;2023-08-07T12:57:46;15.60;1.00
8709;DHT22;4391;48.678;9.280;2023-08-07T13:00:15;15.90;1.00
8709;DHT22;4391;48.678;9.280;2023-08-07T13:02:44;16.10;1.00
8709;DHT22;4391;48.678;9.280;2023-08-07T13:05:11;16.30;99.90
8709;DHT22;4391;48.678;9.280;2023-08-07T13:07:38;16.30;99.90
8709;DHT22;4391;48.678;9.280;2023-08-07T13:10:08;16.40;99.90
8709;DHT22;4391;48.678;9.280;2023-08-07T13:12:36;16.30;99.90
8709;DHT22;4391;48.678;9.280;2023-08-07T13:15:04;16.30;99.90
8709;DHT22;4391;48.678;9.280;2023-08-07T13:17:31;16.20;99.90
8709;DHT22;4391;48.678;9.280;2023-08-07T13:19:58;16.10;99.90
8709;DHT22;4391;48.678;9.280;2023-08-07T13:22:25;16.00;99.90
8709;DHT22;4391;48.678;9.280;2023-08-07T13:24:51;16.10;99.90
8709;DHT22;4391;48.678;9.280;2023-08-07T13:27:19;16.30;99.90
8709;DHT22;4391;48.678;9.280;2023-08-07T13:29:47;16.40;99.90
8709;DHT22;4391;48.678;9.280;2023-08-07T13:32:13;16.70;99.90
8709;DHT22;4391;48.678;9.280;2023-08-07T13:34:43;17.10;99.90
8709;DHT22;4391;48.678;9.280;2023-08-07T13:37:10;17.60;99.90
8709;DHT22;4391;48.678;9.280;2023-08-07T13:39:37;17.80;99.90
8709;DHT22;4391;48.678;9.280;2023-08-07T13:42:05;17.80;99.90
8709;DHT22;4391;48.678;9.280;2023-08-07T13:44:33;17.80;99.90
8709;DHT22;4391;48.678;9.280;2023-08-07T13:47:00;17.80;99.90
8709;DHT22;4391;48.678;9.280;2023-08-07T13:49:27;17.70;99.90
8709;DHT22;4391;48.678;9.280;2023-08-07T13:51:54;17.60;99.90
8709;DHT22;4391;48.678;9.280;2023-08-07T13:54:21;17.40;99.90
8709;DHT22;4391;48.678;9.280;2023-08-07T13:56:48;17.40;99.90
8709;DHT22;4391;48.678;9.280;2023-08-07T13:59:15;17.30;99.90
8709;DHT22;4391;48.678;9.280;2023-08-07T14:01:43;17.30;99.90
8709;DHT22;4391;48.678;9.280;2023-08-07T14:04:10;17.40;99.90
8709;DHT22;4391;48.678;9.280;2023-08-07T14:06:39;17.60;99.90
8709;DHT22;4391;48.678;9.280;2023-08-07T14:09:07;18.00;99.90
8709;DHT22;4391;48.678;9.280;2023-08-07T14:11:34;18.50;99.90
8709;DHT22;4391;48.678;9.280;2023-08-07T14:14:01;18.90;99.90
8709;DHT22;4391;48.678;9.280;2023-08-07T14:16:28;19.50;99.90
8709;DHT22;4391;48.678;9.280;2023-08-07T14:18:56;20.90;99.90
8709;DHT22;4391;48.678;9.280;2023-08-07T14:21:23;21.40;99.90
8709;DHT22;4391;48.678;9.280;2023-08-07T14:23:50;21.80;99.90
8709;DHT22;4391;48.678;9.280;2023-08-07T14:26:17;22.30;99.90
8709;DHT22;4391;48.678;9.280;2023-08-07T14:28:46;23.20;99.90
8709;DHT22;4391;48.678;9.280;2023-08-07T14:31:12;24.80;99.90
8709;DHT22;4391;48.678;9.280;2023-08-07T14:33:39;25.90;99.90
8709;DHT22;4391;48.678;9.280;2023-08-07T14:36:07;25.90;99.90
8709;DHT22;4391;48.678;9.280;2023-08-07T14:38:34;25.70;99.90
8709;DHT22;4391;48.678;9.280;2023-08-07T14:41:01;24.60;99.90
8709;DHT22;4391;48.678;9.280;2023-08-07T14:43:30;24.70;99.90
8709;DHT22;4391;48.678;9.280;2023-08-07T14:45:57;24.30;99.90
8709;DHT22;4391;48.678;9.280;2023-08-07T14:48:24;24.30;99.90
8709;DHT22;4391;48.678;9.280;2023-08-07T14:50:51;23.60;99.90
8709;DHT22;4391;48.678;9.280;2023-08-07T14:53:19;22.80;99.90
8709;DHT22;4391;48.678;9.280;2023-08-07T14:55:46;21.60;99.90
8709;DHT22;4391;48.678;9.280;2023-08-07T14:58:13;20.70;99.90
8709;DHT22;4391;48.678;9.280;2023-08-07T15:00:40;20.30;99.90
8709;DHT22;4391;48.678;9.280;2023-08-07T15:03:06;19.70;99.90
8709;DHT22;4391;48.678;9.280;2023-08-07T15:05:33;19.10;99.90
8709;DHT22;4391;48.678;9.280;2023-08-07T15:08:00;19.00;99.90
8709;DHT22;4391;48.678;9.280;2023-08-07T15:10:29;18.60;99.90
8709;DHT22;4391;48.678;9.280;2023-08-07T15:12:55;18.30;99.90
8709;DHT22;4391;48.678;9.280;2023-08-07T15:15:23;18.10;99.90
8709;DHT22;4391;48.678;9.280;2023-08-07T15:17:49;18.00;99.90
8709;DHT22;4391;48.678;9.280;2023-08-07T15:20:16;17.80;99.90
8709;DHT22;4391;48.678;9.280;2023-08-07T15:22:45;17.80;99.90
8709;DHT22;4391;48.678;9.280;2023-08-07T15:25:13;17.70;99.90
8709;DHT22;4391;48.678;9.280;2023-08-07T15:27:41;18.00;99.90
8709;DHT22;4391;48.678;9.280;2023-08-07T15:30:08;18.50;99.90
8709;DHT22;4391;48.678;9.280;2023-08-07T15:32:37;18.80;99.90
8709;DHT22;4391;48.678;9.280;2023-08-07T15:35:04;18.90;99.90
8709;DHT22;4391;48.678;9.280;2023-08-07T15:37:31;18.90;99.90
8709;DHT22;4391;48.678;9.280;2023-08-07T15:39:58;18.90;99.90
8709;DHT22;4391;48.678;9.280;2023-08-07T15:42:24;18.90;99.90
8709;DHT22;4391;48.678;9.280;2023-08-07T15:44:53;18.90;99.90
8709;DHT22;4391;48.678;9.280;2023-08-07T15:47:20;18.80;99.90
8709;DHT22;4391;48.678;9.280;2023-08-07T15:49:47;19.00;99.90
8709;DHT22;4391;48.678;9.280;2023-08-07T15:52:14;19.00;99.90
8709;DHT22;4391;48.678;9.280;2023-08-07T15:54:41;18.90;99.90
8709;DHT22;4391;48.678;9.280;2023-08-07T15:57:11;18.90;99.90
8709;DHT22;4391;48.678;9.280;2023-08-07T15:59:38;18.70;99.90
8709;DHT22;4391;48.678;9.280;2023-08-07T16:02:07;18.60;99.90
8709;DHT22;4391;48.678;9.280;2023-08-07T16:04:34;18.40;99.90
8709;DHT22;4391;48.678;9.280;2023-08-07T16:07:01;18.20;99.90
8709;DHT22;4391;48.678;9.280;2023-08-07T16:09:28;18.10;99.90